Time;durP1;ratioP1;P1;durP2;ratioP2;P2;SDS_P1;SDS_P2;PMS_P1;PMS_P2;Temp;Humidity;BMP_temperature;BMP_pressure;BME280_temperature;BME280_humidity;BME280_pressure;Samples;Min_cycle;Max_cycle;Signal;HPM_P1;HPM_P2
2023/06/25 00:01:22;;;;;;;1.63;0.98;;;26.00;96.70;;;;;;5038274;28;20085;-70
2023/06/25 00:03:50;;;;;;;7.05;1.33;;;25.80;96.70;;;;;;5038593;28;20619;-69
2023/06/25 00:06:19;;;;;;;2.85;1.15;;;25.80;96.70;;;;;;5065786;28;20059;-69
2023/06/25 00:08:49;;;;;;;2.50;0.90;;;25.70;96.70;;;;;;5063495;28;20051;-69
2023/06/25 00:11:17;;;;;;;2.47;1.00;;;25.90;96.70;;;;;;5066008;28;20040;-69
2023/06/25 00:13:45;;;;;;;1.45;0.85;;;25.80;96.70;;;;;;5066960;28;20394;-69
2023/06/25 00:16:12;;;;;;;3.05;1.00;;;25.60;96.70;;;;;;5062761;28;20033;-69
2023/06/25 00:18:44;;;;;;;3.22;0.82;;;25.40;96.70;;;;;;5061188;28;20078;-69
2023/06/25 00:21:13;;;;;;;3.10;1.40;;;25.20;96.70;;;;;;5062533;28;20450;-69
2023/06/25 00:23:41;;;;;;;1.73;1.00;;;25.30;96.70;;;;;;5023467;28;20492;-69
2023/06/25 00:26:10;;;;;;;2.80;0.88;;;25.30;96.70;;;;;;5044986;28;20040;-69
2023/06/25 00:28:38;;;;;;;1.23;0.80;;;25.30;96.70;;;;;;5058184;28;20041;-69
2023/06/25 00:31:06;;;;;;;1.77;0.98;;;25.10;96.70;;;;;;5039862;28;20048;-69
2023/06/25 00:33:35;;;;;;;1.98;0.95;;;24.90;96.70;;;;;;5032864;28;20071;-69
2023/06/25 00:36:07;;;;;;;3.08;1.00;;;25.00;96.70;;;;;;5066945;28;20640;-69
2023/06/25 00:38:53;;;;;;;1.92;1.00;;;25.10;96.70;;;;;;5046842;28;20048;-69
2023/06/25 00:41:26;;;;;;;2.15;0.95;;;25.20;96.70;;;;;;5041549;28;20079;-69
2023/06/25 00:43:55;;;;;;;2.00;0.80;;;25.10;96.70;;;;;;5064381;28;20904;-69
2023/06/25 00:46:25;;;;;;;2.38;1.00;;;24.90;96.70;;;;;;5049481;28;20393;-69
2023/06/25 00:48:53;;;;;;;4.40;1.17;;;24.80;96.70;;;;;;5061242;28;20537;-69
2023/06/25 00:51:58;;;;;;;1.42;0.93;;;24.70;96.70;;;;;;5043891;28;20048;-69
2023/06/25 00:54:45;;;;;;;2.97;1.10;;;24.50;96.70;;;;;;5046685;28;20577;-69
2023/06/25 01:04:19;;;;;;;1.30;0.90;;;25.20;96.70;;;;;;5062296;28;20495;-68
2023/06/25 01:07:11;;;;;;;3.90;1.17;;;25.40;96.70;;;;;;5025171;28;20040;-69
2023/06/25 01:10:14;;;;;;;3.83;1.00;;;25.50;96.70;;;;;;5055642;28;20642;-69
2023/06/25 01:22:18;;;;;;;;;;;25.50;96.70;;;;;;5059854;28;20127;-68
2023/06/25 01:28:47;;;;;;;2.28;1.42;;;25.40;96.70;;;;;;5070060;28;20074;-68
2023/06/25 01:34:40;;;;;;;2.40;0.80;;;25.20;96.70;;;;;;5058990;28;20049;-68
2023/06/25 01:40:31;;;;;;;1.58;1.13;;;25.30;96.70;;;;;;5067875;28;19930;-68
2023/06/25 01:43:53;;;;;;;3.00;1.20;;;25.30;96.70;;;;;;5062656;28;20147;-68
2023/06/25 01:46:41;;;;;;;2.72;1.08;;;25.10;96.70;;;;;;5042358;28;20098;-68
2023/06/25 01:49:27;;;;;;;2.83;1.50;;;24.90;96.70;;;;;;5043677;28;20044;-68
2023/06/25 01:52:49;;;;;;;3.90;1.60;;;24.80;96.70;;;;;;5061454;28;20525;-68
2023/06/25 01:59:53;;;;;;;2.42;1.38;;;24.50;96.70;;;;;;5040419;28;20044;-68
2023/06/25 02:03:02;;;;;;;1.77;1.23;;;24.50;96.70;;;;;;5061795;28;20059;-69
2023/06/25 02:05:49;;;;;;;2.20;1.23;;;24.50;96.70;;;;;;5061194;28;20052;-69
2023/06/25 02:12:17;;;;;;;2.10;1.20;;;24.90;96.70;;;;;;5064432;28;20055;-68
2023/06/25 02:15:58;;;;;;;3.25;1.40;;;24.80;96.70;;;;;;5059780;28;20055;-69
2023/06/25 02:18:28;;;;;;;2.80;1.48;;;24.70;96.70;;;;;;5040154;28;20048;-69
2023/06/25 02:27:41;;;;;;;2.83;1.40;;;24.40;96.70;;;;;;5059818;28;20098;-69
2023/06/25 02:37:47;;;;;;;5.72;1.70;;;24.60;96.70;;;;;;5037090;28;20074;-68
2023/06/25 02:44:30;;;;;;;3.40;1.63;;;24.60;96.70;;;;;;5041823;28;20118;-68
2023/06/25 02:50:40;;;;;;;4.80;1.77;;;24.50;96.70;;;;;;5066862;28;20033;-68
2023/06/25 02:57:41;;;;;;;5.03;1.70;;;24.50;96.70;;;;;;5062551;28;20091;-68
2023/06/25 03:04:28;;;;;;;2.65;1.30;;;24.30;96.70;;;;;;5063022;28;20047;-68
2023/06/25 03:07:51;;;;;;;3.65;1.70;;;24.00;96.70;;;;;;5063984;28;20455;-68
2023/06/25 03:17:20;;;;;;;2.95;1.50;;;24.10;96.70;;;;;;5063898;28;20182;-68
2023/06/25 03:20:06;;;;;;;3.63;1.45;;;24.00;96.70;;;;;;5063473;28;20440;-68
2023/06/25 03:29:24;;;;;;;2.53;1.20;;;24.00;96.70;;;;;;5039274;28;20442;-68
2023/06/25 03:36:10;;;;;;;3.05;1.45;;;24.00;96.70;;;;;;5063509;28;20086;-69
2023/06/25 03:39:13;;;;;;;4.40;1.05;;;23.90;96.70;;;;;;5033505;28;20757;-68
2023/06/25 03:42:36;;;;;;;4.68;1.20;;;23.90;96.70;;;;;;5059695;28;20074;-68
2023/06/25 03:58:43;;;;;;;2.33;1.20;;;23.50;96.70;;;;;;5042722;28;20072;-68
2023/06/25 04:05:31;;;;;;;1.73;1.27;;;23.40;96.70;;;;;;5044513;28;20043;-68
2023/06/25 04:07:59;;;;;;;4.57;1.25;;;23.20;96.70;;;;;;5042513;28;20052;-68
2023/06/25 04:14:27;;;;;;;1.65;1.00;;;23.40;96.70;;;;;;5059877;28;20059;-68
2023/06/25 04:21:34;;;;;;;2.22;1.25;;;22.80;96.70;;;;;;5064853;28;20075;-68
2023/06/25 04:24:58;;;;;;;4.90;1.45;;;22.30;96.70;;;;;;5051409;28;20110;-68
2023/06/25 04:31:09;;;;;;;2.22;1.20;;;22.70;96.70;;;;;;5064068;28;20406;-68
2023/06/25 04:37:36;;;;;;;2.75;1.40;;;23.00;96.70;;;;;;5067038;28;20052;-69
2023/06/25 04:40:59;;;;;;;4.03;2.42;;;23.20;96.70;;;;;;5065345;28;20087;-69
2023/06/25 04:44:22;;;;;;;4.57;2.40;;;23.40;96.70;;;;;;5062241;28;20107;-68
2023/06/25 04:50:36;;;;;;;4.63;3.25;;;23.70;96.70;;;;;;5065763;28;20047;-68
2023/06/25 04:53:05;;;;;;;6.00;3.58;;;23.90;96.70;;;;;;5047981;28;20757;-68
2023/06/25 04:55:33;;;;;;;5.35;3.55;;;24.00;96.70;;;;;;5044810;28;20047;-68
2023/06/25 04:58:01;;;;;;;5.03;3.53;;;24.00;96.70;;;;;;5066906;28;20066;-68
2023/06/25 05:00:29;;;;;;;5.70;3.38;;;24.10;96.70;;;;;;5070043;28;20123;-68
2023/06/25 05:02:57;;;;;;;7.68;4.82;;;24.10;96.70;;;;;;5074802;28;20048;-68
2023/06/25 05:05:25;;;;;;;5.07;3.38;;;24.00;96.70;;;;;;5043997;28;20428;-68
2023/06/25 05:07:55;;;;;;;4.78;3.10;;;23.80;96.70;;;;;;5046975;28;20539;-68
2023/06/25 05:10:23;;;;;;;6.32;3.17;;;23.80;96.70;;;;;;5074656;28;20040;-69
2023/06/25 05:12:51;;;;;;;4.82;2.83;;;23.90;96.70;;;;;;5082399;28;20728;-68
2023/06/25 05:15:19;;;;;;;2.70;2.17;;;24.00;96.70;;;;;;5062638;28;20148;-68
2023/06/25 05:17:47;;;;;;;3.80;2.67;;;24.10;96.70;;;;;;5063633;28;20068;-68
2023/06/25 05:20:15;;;;;;;3.85;3.28;;;24.30;96.70;;;;;;5073316;28;20044;-68
2023/06/25 05:22:43;;;;;;;4.00;3.60;;;24.50;96.70;;;;;;5047181;28;20044;-68
2023/06/25 05:25:13;;;;;;;4.35;3.08;;;24.40;96.70;;;;;;5056503;28;20044;-68
2023/06/25 05:27:41;;;;;;;4.28;3.50;;;24.50;96.70;;;;;;5074024;28;20514;-68
2023/06/25 05:30:09;;;;;;;5.05;3.83;;;24.50;96.70;;;;;;5069188;28;20115;-68
2023/06/25 05:32:38;;;;;;;5.43;3.72;;;24.50;96.70;;;;;;5063231;28;20048;-68
2023/06/25 05:35:06;;;;;;;4.05;3.65;;;24.60;96.70;;;;;;5046030;28;20490;-68
2023/06/25 05:37:34;;;;;;;6.10;3.42;;;24.70;96.70;;;;;;5063483;28;20045;-68
2023/06/25 05:40:03;;;;;;;4.55;2.83;;;24.70;96.70;;;;;;5073637;28;20052;-68
2023/06/25 05:42:32;;;;;;;4.93;2.95;;;24.80;96.70;;;;;;5073605;28;20048;-68
2023/06/25 05:45:00;;;;;;;4.28;3.05;;;24.90;96.70;;;;;;5070493;28;20528;-68
2023/06/25 05:47:28;;;;;;;5.35;3.53;;;24.90;96.70;;;;;;5063509;28;20076;-68
2023/06/25 05:49:56;;;;;;;4.60;3.28;;;25.10;96.70;;;;;;5067795;28;20041;-68
2023/06/25 05:52:24;;;;;;;5.28;3.30;;;25.20;96.70;;;;;;5080496;28;20425;-68
2023/06/25 05:54:52;;;;;;;5.53;2.90;;;25.10;96.70;;;;;;5071505;28;20560;-68
2023/06/25 05:57:20;;;;;;;4.03;2.92;;;25.20;96.70;;;;;;5053045;28;20051;-68
2023/06/25 05:59:51;;;;;;;4.28;2.78;;;25.30;96.70;;;;;;5044610;28;20067;-68
2023/06/25 06:02:19;;;;;;;5.30;3.22;;;25.30;96.70;;;;;;5045869;28;20051;-68
2023/06/25 06:04:47;;;;;;;4.22;2.90;;;25.30;96.70;;;;;;5079242;28;20044;-68
2023/06/25 06:07:15;;;;;;;3.92;3.00;;;25.30;96.70;;;;;;5072633;28;20041;-68
2023/06/25 06:09:44;;;;;;;3.97;2.67;;;25.30;96.70;;;;;;5066385;28;20064;-68
2023/06/25 06:12:12;;;;;;;3.30;2.65;;;25.30;96.70;;;;;;5046907;28;20400;-68
2023/06/25 06:14:40;;;;;;;5.07;3.10;;;25.40;96.70;;;;;;5059639;28;20721;-68
2023/06/25 06:17:09;;;;;;;3.72;2.50;;;25.50;96.70;;;;;;5047094;28;20064;-68
2023/06/25 06:19:37;;;;;;;3.03;2.22;;;25.50;96.70;;;;;;5044606;28;20033;-70
2023/06/25 06:22:05;;;;;;;3.17;2.45;;;25.50;96.70;;;;;;5069881;28;20044;-69
2023/06/25 06:24:34;;;;;;;5.68;2.40;;;25.50;96.70;;;;;;5068631;28;20058;-69
2023/06/25 06:27:04;;;;;;;3.97;3.00;;;25.60;96.70;;;;;;5066481;28;20049;-70
2023/06/25 06:29:31;;;;;;;3.78;2.13;;;25.60;96.70;;;;;;5052454;28;20056;-69
2023/06/25 06:32:00;;;;;;;7.35;3.42;;;25.60;96.70;;;;;;5050602;28;20111;-71
2023/06/25 06:34:43;;;;;;;4.85;3.25;;;25.70;96.70;;;;;;5054122;28;20106;-70
2023/06/25 06:37:11;;;;;;;5.40;3.30;;;25.70;96.70;;;;;;5074623;28;20055;-70
2023/06/25 06:39:39;;;;;;;4.60;3.10;;;25.70;96.70;;;;;;5071807;28;20124;-70
2023/06/25 06:42:07;;;;;;;5.65;3.08;;;25.80;96.70;;;;;;5052732;28;20048;-69
2023/06/25 06:44:38;;;;;;;4.45;3.20;;;25.80;96.70;;;;;;5043334;28;20509;-70
2023/06/25 06:47:06;;;;;;;5.28;3.90;;;25.80;96.70;;;;;;5072593;28;20509;-70
2023/06/25 06:49:35;;;;;;;4.32;2.83;;;25.80;96.70;;;;;;5076285;28;20120;-70
2023/06/25 06:52:05;;;;;;;5.32;3.30;;;25.90;96.70;;;;;;5047917;28;20048;-70
2023/06/25 06:54:33;;;;;;;5.47;3.70;;;26.00;96.70;;;;;;5062727;28;20040;-70
2023/06/25 06:57:02;;;;;;;4.78;3.00;;;26.00;96.70;;;;;;5072102;28;20044;-69
2023/06/25 06:59:31;;;;;;;4.05;2.83;;;26.10;96.70;;;;;;5069735;28;20037;-69
2023/06/25 07:01:59;;;;;;;3.17;2.40;;;26.20;96.70;;;;;;5027890;28;20044;-70
2023/06/25 07:04:28;;;;;;;5.53;2.10;;;26.30;96.70;;;;;;5060076;28;20056;-70
2023/06/25 07:06:56;;;;;;;4.22;1.52;;;26.40;96.70;;;;;;5076996;28;20040;-70
2023/06/25 07:09:27;;;;;;;1.65;1.20;;;26.50;96.70;;;;;;5051787;28;20055;-69
2023/06/25 07:11:56;;;;;;;2.13;1.60;;;26.60;96.70;;;;;;5062329;28;20066;-69
2023/06/25 07:14:24;;;;;;;2.35;1.50;;;26.70;96.70;;;;;;5050714;28;20045;-70
2023/06/25 07:16:52;;;;;;;2.33;1.35;;;26.80;96.70;;;;;;5053160;28;20489;-70
2023/06/25 07:19:20;;;;;;;2.47;1.48;;;26.80;96.70;;;;;;5062287;28;20615;-70
2023/06/25 07:21:48;;;;;;;2.95;1.10;;;26.90;96.70;;;;;;5061602;28;20054;-70
2023/06/25 07:24:16;;;;;;;2.00;1.15;;;27.00;96.70;;;;;;5066644;28;20039;-71
2023/06/25 07:26:45;;;;;;;6.05;3.47;;;27.00;96.70;;;;;;5053180;28;20056;-70
2023/06/25 07:29:14;;;;;;;1.80;1.35;;;27.00;96.70;;;;;;5045812;28;20055;-71
2023/06/25 07:31:42;;;;;;;1.67;0.90;;;27.10;96.70;;;;;;5046180;28;20068;-71
2023/06/25 07:34:10;;;;;;;2.47;1.23;;;27.20;96.70;;;;;;5049439;28;20094;-70
2023/06/25 07:36:38;;;;;;;2.08;1.20;;;27.20;96.70;;;;;;5064362;28;20036;-72
2023/06/25 07:39:06;;;;;;;1.92;1.10;;;27.30;96.70;;;;;;5049626;28;20386;-72
2023/06/25 07:41:34;;;;;;;1.88;1.30;;;27.30;96.70;;;;;;5061773;28;20083;-72
2023/06/25 07:44:05;;;;;;;1.58;0.80;;;27.40;96.70;;;;;;5067121;28;20052;-72
2023/06/25 07:47:18;;;;;;;1.70;1.00;;;27.40;96.70;;;;;;5030994;28;20056;-73
2023/06/25 07:49:47;;;;;;;1.65;1.13;;;27.50;96.70;;;;;;5022522;28;20428;-73
2023/06/25 07:52:15;;;;;;;1.85;1.10;;;27.50;96.70;;;;;;5020615;28;20049;-73
2023/06/25 07:54:43;;;;;;;1.77;1.02;;;27.50;96.70;;;;;;5030896;28;20060;-73
2023/06/25 07:57:11;;;;;;;1.73;1.13;;;27.60;96.70;;;;;;5000680;28;20064;-74
2023/06/25 07:59:41;;;;;;;2.33;1.02;;;27.60;96.70;;;;;;5031403;28;20131;-74
2023/06/25 08:02:20;;;;;;;2.53;0.98;;;27.60;96.70;;;;;;5011530;28;20103;-73
2023/06/25 08:04:49;;;;;;;2.08;1.05;;;27.60;96.70;;;;;;5032918;28;20042;-73
2023/06/25 08:07:17;;;;;;;1.42;0.75;;;27.70;96.70;;;;;;5024909;28;20132;-70
2023/06/25 08:09:46;;;;;;;1.40;0.73;;;27.70;96.70;;;;;;5004170;28;20180;-70
2023/06/25 08:12:14;;;;;;;2.35;1.00;;;27.80;96.70;;;;;;5065296;28;20068;-70
2023/06/25 08:14:46;;;;;;;0.80;0.80;;;27.90;96.70;;;;;;5081040;28;20047;-72
2023/06/25 08:17:14;;;;;;;1.88;1.00;;;27.90;96.70;;;;;;5048318;28;20048;-70
2023/06/25 08:19:42;;;;;;;3.40;1.30;;;27.80;96.70;;;;;;5054577;28;20151;-70
2023/06/25 08:22:10;;;;;;;1.52;1.08;;;27.80;96.70;;;;;;5069855;28;20080;-70
2023/06/25 08:24:38;;;;;;;1.13;1.00;;;27.90;96.70;;;;;;5069716;28;20036;-70
2023/06/25 08:27:06;;;;;;;3.08;0.98;;;27.90;96.70;;;;;;5074248;28;20079;-71
2023/06/25 08:29:34;;;;;;;1.50;0.85;;;28.10;96.70;;;;;;5051652;28;20047;-71
2023/06/25 08:32:04;;;;;;;2.70;2.25;;;28.20;96.70;;;;;;5055349;28;20044;-71
2023/06/25 08:34:33;;;;;;;4.93;4.30;;;28.20;96.70;;;;;;5064894;28;20112;-71
2023/06/25 08:37:01;;;;;;;4.15;1.75;;;28.20;96.70;;;;;;5067903;28;20094;-72
2023/06/25 08:39:29;;;;;;;1.10;1.00;;;28.10;96.70;;;;;;5047619;28;20048;-71
2023/06/25 08:41:58;;;;;;;2.88;1.20;;;28.20;96.70;;;;;;5070974;28;20066;-71
2023/06/25 08:44:26;;;;;;;5.07;1.67;;;28.30;96.70;;;;;;5074521;28;20413;-71
2023/06/25 08:46:55;;;;;;;5.93;1.40;;;28.40;96.70;;;;;;5029478;28;20040;-70
2023/06/25 08:49:28;;;;;;;2.85;1.15;;;28.40;96.70;;;;;;5056579;28;20053;-71
2023/06/25 08:51:58;;;;;;;1.75;1.13;;;28.40;96.70;;;;;;5079342;28;20684;-70
2023/06/25 08:54:27;;;;;;;2.58;1.63;;;28.50;96.70;;;;;;5053175;28;20043;-71
2023/06/25 08:56:59;;;;;;;1.35;1.02;;;28.60;96.70;;;;;;5065997;28;20037;-71
2023/06/25 08:59:27;;;;;;;4.28;1.00;;;28.60;96.70;;;;;;5065161;28;20066;-71
2023/06/25 09:01:55;;;;;;;2.28;1.27;;;28.70;96.70;;;;;;5056093;28;20044;-70
2023/06/25 09:04:25;;;;;;;1.27;0.95;;;28.80;96.70;;;;;;5055187;28;20052;-70
2023/06/25 09:06:53;;;;;;;3.22;1.20;;;28.70;96.70;;;;;;5050191;28;20037;-69
2023/06/25 09:09:31;;;;;;;2.05;1.27;;;28.80;96.70;;;;;;5080969;28;20200;-69
2023/06/25 09:11:59;;;;;;;1.85;0.95;;;28.80;96.70;;;;;;5065694;28;20128;-71
2023/06/25 09:14:29;;;;;;;5.97;4.60;;;28.70;96.70;;;;;;5078651;28;20040;-70
2023/06/25 09:16:57;;;;;;;5.20;2.90;;;28.70;96.70;;;;;;5068716;28;20604;-70
2023/06/25 09:19:26;;;;;;;3.60;1.25;;;28.70;96.70;;;;;;5064251;28;20379;-71
2023/06/25 09:21:55;;;;;;;2.92;1.30;;;28.70;96.70;;;;;;5045970;28;20498;-70
2023/06/25 09:24:23;;;;;;;1.08;0.90;;;28.80;96.70;;;;;;5066543;28;20494;-69
2023/06/25 09:26:53;;;;;;;1.08;0.95;;;28.70;96.70;;;;;;5046880;28;20044;-71
2023/06/25 09:29:22;;;;;;;1.52;0.82;;;28.60;96.70;;;;;;5063714;28;20823;-71
2023/06/25 09:31:50;;;;;;;2.65;1.08;;;28.60;96.70;;;;;;5054312;28;20048;-71
2023/06/25 09:34:19;;;;;;;1.33;1.00;;;28.90;96.70;;;;;;5074075;28;20052;-71
2023/06/25 09:36:48;;;;;;;0.88;0.73;;;29.00;96.70;;;;;;5063537;28;20049;-71
2023/06/25 09:39:16;;;;;;;1.80;1.20;;;29.10;96.70;;;;;;5053128;28;20128;-71
2023/06/25 09:41:45;;;;;;;1.30;0.93;;;29.20;96.70;;;;;;5061090;28;20532;-73
2023/06/25 09:44:14;;;;;;;1.60;1.20;;;29.40;96.70;;;;;;5067072;28;20490;-70
2023/06/25 09:46:43;;;;;;;1.90;1.02;;;29.20;96.70;;;;;;5063324;28;20036;-70
2023/06/25 09:49:12;;;;;;;2.50;0.93;;;29.40;96.70;;;;;;5037929;28;20597;-70
2023/06/25 09:51:46;;;;;;;1.83;1.15;;;29.50;96.70;;;;;;5045412;28;20037;-71
2023/06/25 09:54:21;;;;;;;1.88;0.93;;;29.50;96.70;;;;;;5074542;28;20066;-71
2023/06/25 09:56:50;;;;;;;2.22;1.30;;;29.60;96.70;;;;;;5046150;28;20482;-72
2023/06/25 09:59:18;;;;;;;8.32;7.63;;;29.80;96.70;;;;;;5062969;28;20508;-70
2023/06/25 10:01:49;;;;;;;2.50;2.30;;;29.80;96.70;;;;;;5044982;28;20068;-70
2023/06/25 10:04:17;;;;;;;1.95;1.58;;;29.70;96.70;;;;;;5063387;28;20044;-70
2023/06/25 10:06:46;;;;;;;3.10;1.63;;;29.70;96.70;;;;;;5042187;28;20486;-69
2023/06/25 10:09:16;;;;;;;1.55;1.45;;;29.70;96.70;;;;;;5063622;28;20037;-72
2023/06/25 10:11:56;;;;;;;3.15;1.30;;;29.80;96.70;;;;;;5053426;28;20048;-67
2023/06/25 10:14:25;;;;;;;2.63;1.23;;;29.90;96.70;;;;;;5061693;28;20102;-70
2023/06/25 10:16:54;;;;;;;2.00;1.48;;;30.10;96.70;;;;;;5069355;28;20440;-73
2023/06/25 10:19:36;;;;;;;3.40;1.20;;;30.20;96.70;;;;;;5063102;28;20127;-71
2023/06/25 10:22:06;;;;;;;1.58;1.17;;;30.30;96.70;;;;;;5051560;28;20051;-70
2023/06/25 10:24:42;;;;;;;1.40;1.27;;;30.20;96.70;;;;;;5027782;28;20048;-72
2023/06/25 10:27:23;;;;;;;2.10;1.48;;;30.10;96.70;;;;;;5063140;28;20056;-69
2023/06/25 10:30:41;;;;;;;1.73;1.08;;;30.10;96.70;;;;;;5238742;22;20102;-69
2023/06/25 10:33:14;;;;;;;1.48;1.38;;;30.20;96.70;;;;;;4999992;28;20076;-70
2023/06/25 10:35:43;;;;;;;1.30;1.20;;;30.20;96.70;;;;;;5016872;28;20077;-70
2023/06/25 10:38:11;;;;;;;2.47;1.40;;;30.20;96.70;;;;;;5012894;28;20050;-70
2023/06/25 10:40:40;;;;;;;3.17;1.55;;;30.10;96.70;;;;;;5017422;28;20046;-70
2023/06/25 10:43:09;;;;;;;4.85;1.40;;;30.30;96.70;;;;;;5002485;28;20033;-69
2023/06/25 10:45:37;;;;;;;2.38;1.08;;;30.40;96.70;;;;;;5000562;28;20042;-69
2023/06/25 10:48:08;;;;;;;3.47;2.10;;;30.50;96.70;;;;;;5002952;28;20052;-69
2023/06/25 10:50:37;;;;;;;3.78;1.40;;;30.70;96.70;;;;;;5003585;28;20491;-69
2023/06/25 10:53:11;;;;;;;2.40;1.40;;;31.00;96.70;;;;;;5009550;28;20061;-68
2023/06/25 10:55:43;;;;;;;1.50;1.23;;;31.10;96.70;;;;;;4999147;28;20108;-69
2023/06/25 10:58:16;;;;;;;1.60;1.10;;;30.80;96.70;;;;;;4990510;28;20508;-69
2023/06/25 11:00:44;;;;;;;2.33;1.50;;;30.60;96.70;;;;;;5004680;28;20046;-69
2023/06/25 11:03:12;;;;;;;1.85;1.00;;;30.30;96.70;;;;;;5022172;28;20060;-69
2023/06/25 11:05:42;;;;;;;1.27;1.17;;;30.30;96.70;;;;;;5016210;28;20148;-68
2023/06/25 11:08:13;;;;;;;3.33;1.35;;;30.60;96.70;;;;;;5004152;28;20046;-68
2023/06/25 11:10:43;;;;;;;1.83;1.25;;;30.90;96.70;;;;;;5011739;28;20047;-69
2023/06/25 11:13:11;;;;;;;1.10;0.90;;;31.40;96.70;;;;;;5007850;28;20493;-69
2023/06/25 11:15:40;;;;;;;2.08;1.20;;;31.70;96.70;;;;;;5015169;28;20462;-68
2023/06/25 11:18:08;;;;;;;1.20;1.10;;;32.00;96.70;;;;;;5004883;28;20042;-69
2023/06/25 11:20:39;;;;;;;2.13;1.20;;;32.10;96.70;;;;;;5005735;28;20434;-70
2023/06/25 11:23:10;;;;;;;2.22;1.73;;;31.90;96.70;;;;;;5006542;28;20050;-70
2023/06/25 11:25:38;;;;;;;3.25;2.95;;;32.00;96.70;;;;;;5002129;28;20045;-69
2023/06/25 11:28:11;;;;;;;1.63;1.52;;;32.10;96.70;;;;;;5013518;28;20064;-69
2023/06/25 11:30:40;;;;;;;2.80;1.35;;;31.90;96.70;;;;;;5018403;28;20054;-69
2023/06/25 11:33:09;;;;;;;1.88;1.40;;;31.80;96.70;;;;;;5032705;28;20056;-70
2023/06/25 11:35:38;;;;;;;1.98;1.17;;;31.80;96.70;;;;;;5059490;28;20482;-69
2023/06/25 11:38:06;;;;;;;2.33;1.52;;;31.90;96.70;;;;;;5054271;28;20414;-69
2023/06/25 11:40:36;;;;;;;1.60;1.35;;;31.80;96.70;;;;;;5044484;28;20037;-69
2023/06/25 11:43:06;;;;;;;1.88;1.60;;;32.00;96.70;;;;;;5054662;28;20040;-69
2023/06/25 11:45:43;;;;;;;1.80;1.60;;;32.10;96.70;;;;;;5052306;28;20371;-70
2023/06/25 11:48:15;;;;;;;4.15;1.42;;;32.20;96.70;;;;;;5045662;28;20045;-69
2023/06/25 11:50:43;;;;;;;1.90;1.52;;;31.90;96.70;;;;;;5054373;28;20473;-69
2023/06/25 11:53:12;;;;;;;2.00;1.52;;;31.70;96.70;;;;;;5010471;28;20403;-69
2023/06/25 11:55:40;;;;;;;1.65;1.50;;;31.80;96.70;;;;;;5034133;28;20508;-69
2023/06/25 11:58:09;;;;;;;1.42;1.33;;;32.00;96.70;;;;;;5058271;28;20135;-69
2023/06/25 12:00:38;;;;;;;2.38;1.30;;;32.40;96.70;;;;;;5049752;28;20095;-71
2023/06/25 12:03:12;;;;;;;1.60;1.50;;;32.30;96.70;;;;;;5061304;28;20044;-69
2023/06/25 12:05:40;;;;;;;2.50;1.60;;;32.30;96.70;;;;;;5062402;28;20528;-69
2023/06/25 12:08:08;;;;;;;2.00;1.80;;;32.00;96.70;;;;;;5052985;28;20033;-69
2023/06/25 12:10:36;;;;;;;2.25;1.83;;;31.90;96.70;;;;;;5024663;28;20037;-69
2023/06/25 12:13:04;;;;;;;1.67;1.42;;;32.00;96.70;;;;;;5040798;28;20044;-70
2023/06/25 12:15:32;;;;;;;3.15;1.63;;;32.10;96.70;;;;;;5047751;28;20124;-69
2023/06/25 12:18:00;;;;;;;3.63;1.52;;;32.30;96.70;;;;;;5037182;28;20457;-69
2023/06/25 12:20:30;;;;;;;1.88;1.50;;;32.50;96.70;;;;;;5040007;28;20041;-68
2023/06/25 12:22:58;;;;;;;2.55;1.35;;;32.90;96.70;;;;;;5017679;28;20049;-68
2023/06/25 12:25:25;;;;;;;4.63;1.73;;;33.30;96.70;;;;;;5043831;28;20095;-68
2023/06/25 12:27:54;;;;;;;1.38;1.27;;;33.40;96.70;;;;;;5044508;28;20149;-69
2023/06/25 12:30:23;;;;;;;2.00;1.80;;;33.50;96.70;;;;;;5031386;28;20087;-69
2023/06/25 12:32:51;;;;;;;2.17;1.63;;;33.80;96.70;;;;;;5046940;28;20057;-69
2023/06/25 12:35:23;;;;;;;2.33;1.52;;;33.40;96.70;;;;;;5040487;28;20138;-68
2023/06/25 12:37:52;;;;;;;3.30;1.58;;;33.30;96.70;;;;;;5041653;28;20521;-69
2023/06/25 12:40:20;;;;;;;1.98;1.40;;;33.50;96.70;;;;;;5050029;28;20530;-68
2023/06/25 12:42:48;;;;;;;2.42;1.88;;;33.80;96.70;;;;;;5045101;28;20508;-68
2023/06/25 12:45:17;;;;;;;2.17;1.55;;;34.00;96.70;;;;;;5053516;28;20040;-68
2023/06/25 12:47:45;;;;;;;2.03;1.60;;;33.70;96.70;;;;;;5062598;28;20567;-69
2023/06/25 12:50:13;;;;;;;2.13;1.80;;;33.50;96.70;;;;;;5033805;28;20049;-70
2023/06/25 12:52:41;;;;;;;4.63;1.77;;;33.20;96.70;;;;;;5045028;28;20065;-70
2023/06/25 12:55:11;;;;;;;1.58;1.48;;;32.80;96.70;;;;;;5026652;28;20055;-71
2023/06/25 12:57:39;;;;;;;2.15;1.95;;;32.40;96.70;;;;;;5052454;28;20040;-70
2023/06/25 13:00:08;;;;;;;1.70;1.60;;;32.10;96.70;;;;;;5052578;28;20125;-71
2023/06/25 13:02:47;;;;;;;2.63;1.67;;;32.10;96.70;;;;;;5028254;28;20069;-69
2023/06/25 13:05:15;;;;;;;1.50;1.40;;;32.50;96.70;;;;;;5044677;28;20065;-70
2023/06/25 13:07:43;;;;;;;2.08;1.67;;;32.90;96.70;;;;;;5044190;28;20049;-70
2023/06/25 13:10:13;;;;;;;3.00;1.50;;;33.40;96.70;;;;;;5043772;28;20045;-70
2023/06/25 13:12:41;;;;;;;2.05;1.60;;;33.80;96.70;;;;;;5054040;28;20049;-71
2023/06/25 13:15:10;;;;;;;1.98;1.65;;;34.00;96.70;;;;;;5062377;28;20067;-71
2023/06/25 13:17:38;;;;;;;2.20;2.00;;;34.00;96.70;;;;;;5034039;28;20417;-68
2023/06/25 13:20:07;;;;;;;2.17;1.80;;;34.30;96.70;;;;;;5028855;28;20033;-68
2023/06/25 13:22:36;;;;;;;1.95;1.80;;;34.50;96.70;;;;;;5042633;28;20044;-68
2023/06/25 13:25:05;;;;;;;1.83;1.63;;;34.60;96.70;;;;;;5054294;28;20049;-68
2023/06/25 13:27:34;;;;;;;2.00;1.80;;;34.60;96.70;;;;;;5042929;28;20053;-68
2023/06/25 13:30:03;;;;;;;3.17;1.60;;;34.80;96.70;;;;;;5047670;28;20489;-68
2023/06/25 13:32:31;;;;;;;1.75;1.65;;;34.90;96.70;;;;;;5045395;28;20736;-69
2023/06/25 13:34:59;;;;;;;2.80;1.60;;;35.10;96.70;;;;;;5045355;28;20052;-70
2023/06/25 13:37:27;;;;;;;1.92;1.52;;;35.40;96.70;;;;;;5051508;28;20044;-70
2023/06/25 13:39:54;;;;;;;1.92;1.73;;;35.50;96.70;;;;;;5049561;28;20497;-71
2023/06/25 13:42:24;;;;;;;1.92;1.83;;;35.70;96.70;;;;;;5053504;28;20616;-71
2023/06/25 13:44:53;;;;;;;2.63;1.90;;;36.10;96.70;;;;;;5026554;28;20049;-71
2023/06/25 13:47:21;;;;;;;2.75;1.60;;;36.20;96.70;;;;;;5039228;28;20045;-71
2023/06/25 13:49:49;;;;;;;3.25;1.77;;;36.20;96.70;;;;;;5042584;28;20139;-71
2023/06/25 13:52:17;;;;;;;2.20;2.00;;;36.60;96.70;;;;;;5051250;28;20045;-69
2023/06/25 13:54:45;;;;;;;2.10;1.73;;;37.10;96.70;;;;;;5040645;28;20051;-69
2023/06/25 13:57:13;;;;;;;1.83;1.73;;;37.40;96.70;;;;;;5047981;28;20091;-69
2023/06/25 13:59:43;;;;;;;2.20;2.00;;;37.50;96.50;;;;;;5051187;28;20087;-69
2023/06/25 14:02:12;;;;;;;2.08;1.88;;;37.70;96.70;;;;;;5044338;28;20068;-69
2023/06/25 14:04:40;;;;;;;5.97;1.83;;;37.60;96.50;;;;;;5047760;28;20125;-70
2023/06/25 14:07:09;;;;;;;2.92;1.83;;;36.40;96.70;;;;;;5040980;28;20041;-70
2023/06/25 14:09:36;;;;;;;2.10;1.80;;;36.70;96.70;;;;;;5043290;28;20432;-70
2023/06/25 14:12:05;;;;;;;3.05;1.80;;;36.70;96.70;;;;;;5048443;28;20102;-70
2023/06/25 14:14:33;;;;;;;3.00;2.00;;;36.30;96.70;;;;;;5027551;28;20413;-70
2023/06/25 14:17:01;;;;;;;1.88;1.73;;;37.00;96.70;;;;;;5034590;28;20048;-71
2023/06/25 14:19:30;;;;;;;2.00;1.60;;;36.40;96.70;;;;;;5046019;28;20069;-70
2023/06/25 14:21:58;;;;;;;2.17;1.60;;;36.00;96.70;;;;;;5043686;28;20048;-73
2023/06/25 14:24:26;;;;;;;2.30;2.10;;;35.50;96.70;;;;;;5042514;28;20052;-71
2023/06/25 14:26:55;;;;;;;3.63;1.92;;;35.60;96.70;;;;;;5052083;28;20052;-71
2023/06/25 14:29:27;;;;;;;3.00;1.88;;;36.70;96.70;;;;;;5042642;28;20037;-70
2023/06/25 14:31:55;;;;;;;1.80;1.70;;;37.00;95.80;;;;;;5040473;28;20067;-71
2023/06/25 14:34:23;;;;;;;3.25;1.73;;;37.40;96.20;;;;;;5038828;28;20076;-70
2023/06/25 14:36:52;;;;;;;1.98;1.85;;;36.90;96.10;;;;;;5021864;28;20053;-70
2023/06/25 14:39:21;;;;;;;2.22;1.55;;;36.60;96.70;;;;;;5035375;28;20045;-70
2023/06/25 14:41:48;;;;;;;1.92;1.67;;;35.70;96.70;;;;;;5034436;28;20044;-70
2023/06/25 14:44:18;;;;;;;2.35;2.15;;;36.10;96.70;;;;;;5037911;28;20068;-70
2023/06/25 14:46:46;;;;;;;2.55;1.50;;;36.90;95.90;;;;;;5049100;28;20043;-70
2023/06/25 14:49:14;;;;;;;2.10;1.90;;;37.40;94.40;;;;;;5049649;28;20040;-73
2023/06/25 14:51:42;;;;;;;1.88;1.70;;;37.90;94.30;;;;;;5024433;28;20073;-70
2023/06/25 14:54:11;;;;;;;2.40;1.77;;;38.30;92.90;;;;;;5027713;28;20049;-73
2023/06/25 14:56:39;;;;;;;2.22;1.77;;;38.50;92.30;;;;;;5056086;28;20068;-74
2023/06/25 14:59:07;;;;;;;2.08;1.80;;;38.60;92.30;;;;;;5041911;28;20037;-70
2023/06/25 15:01:35;;;;;;;1.75;1.65;;;38.90;91.80;;;;;;5041685;28;20095;-70
2023/06/25 15:04:04;;;;;;;2.40;2.05;;;39.50;91.80;;;;;;5041803;28;20053;-71
2023/06/25 15:06:32;;;;;;;2.13;1.92;;;39.70;90.80;;;;;;5037649;28;21804;-70
2023/06/25 15:09:05;;;;;;;3.58;1.60;;;39.60;90.30;;;;;;5043061;28;20041;-70
2023/06/25 15:11:35;;;;;;;1.67;1.58;;;39.80;90.90;;;;;;5043075;28;20045;-70
2023/06/25 15:14:03;;;;;;;2.47;1.60;;;40.20;91.30;;;;;;5041510;28;20093;-70